MAS1345 WMKK-WMKN
Flight info
| Callsign | MAS1345 |
|---|---|
| Flight time | 0h 38m |
| Altitude | 29000 |
| Route | PIBOS1B PIBOS R208 GUNBO GUNBO1E |
| Aircraft | B738/M-SDE2E3FGHIRWXY/LB1 |
Departure
| Time | 2026-05-07 14:56 |
|---|---|
| Airport | Kuala Lumpur International Airport (WMKK) |
Arrival
| Time | 2026-05-07 15:35 |
|---|---|
| Airport | Sultan Mahmud Airport (WMKN) |
| Time | Latitude | Longitude | Altitude | Speed | Heading |
|---|---|---|---|---|---|
| 2026-05-07 14:14 | 2.75401 | 101.70840 | 65 ft | 0 kts | 326° |
| 2026-05-07 14:41 | 2.75383 | 101.70853 | 62 ft | 4 kts | 325° |
| 2026-05-07 14:41 | 2.75360 | 101.70868 | 62 ft | 4 kts | 328° |
| 2026-05-07 14:42 | 2.75337 | 101.70880 | 64 ft | 4 kts | 352° |
| 2026-05-07 14:42 | 2.75319 | 101.70876 | 67 ft | 3 kts | 56° |
| 2026-05-07 14:42 | 2.75309 | 101.70861 | 62 ft | 0 kts | 56° |
| 2026-05-07 14:45 | 2.75310 | 101.70862 | 62 ft | 1 kts | 56° |
| 2026-05-07 14:46 | 2.75322 | 101.70881 | 63 ft | 8 kts | 56° |
| 2026-05-07 14:46 | 2.75368 | 101.70948 | 67 ft | 13 kts | 56° |
| 2026-05-07 14:46 | 2.75419 | 101.71022 | 68 ft | 14 kts | 57° |
| 2026-05-07 14:46 | 2.75481 | 101.71118 | 69 ft | 18 kts | 56° |
| 2026-05-07 14:47 | 2.75545 | 101.71214 | 69 ft | 16 kts | 56° |
| 2026-05-07 14:47 | 2.75606 | 101.71306 | 69 ft | 16 kts | 56° |
| 2026-05-07 14:47 | 2.75653 | 101.71405 | 69 ft | 16 kts | 95° |
| 2026-05-07 14:47 | 2.75578 | 101.71479 | 66 ft | 15 kts | 146° |
| 2026-05-07 14:48 | 2.75491 | 101.71539 | 69 ft | 16 kts | 147° |
| 2026-05-07 14:48 | 2.75384 | 101.71610 | 67 ft | 20 kts | 144° |
| 2026-05-07 14:48 | 2.75274 | 101.71685 | 71 ft | 20 kts | 146° |
| 2026-05-07 14:48 | 2.75162 | 101.71758 | 66 ft | 19 kts | 146° |
| 2026-05-07 14:49 | 2.75062 | 101.71826 | 68 ft | 11 kts | 146° |
| 2026-05-07 14:49 | 2.75004 | 101.71865 | 74 ft | 10 kts | 146° |
| 2026-05-07 14:49 | 2.74937 | 101.71909 | 70 ft | 14 kts | 147° |
| 2026-05-07 14:49 | 2.74850 | 101.71968 | 74 ft | 16 kts | 146° |
| 2026-05-07 14:50 | 2.74761 | 101.72043 | 71 ft | 18 kts | 110° |
| 2026-05-07 14:50 | 2.74814 | 101.72154 | 76 ft | 19 kts | 50° |
| 2026-05-07 14:50 | 2.74931 | 101.72155 | 72 ft | 20 kts | 308° |
| 2026-05-07 14:50 | 2.74978 | 101.72112 | 76 ft | 0 kts | 324° |
| 2026-05-07 14:55 | 2.74983 | 101.72109 | 76 ft | 3 kts | 323° |
| 2026-05-07 14:55 | 2.75083 | 101.72042 | 76 ft | 48 kts | 327° |
| 2026-05-07 14:55 | 2.75586 | 101.71705 | 64 ft | 123 kts | 326° |
| 2026-05-07 14:55 | 2.76475 | 101.71108 | 102 ft | 180 kts | 326° |
| 2026-05-07 14:56 | 2.77570 | 101.70325 | 648 ft | 201 kts | 325° |
| 2026-05-07 14:56 | 2.78747 | 101.69542 | 1456 ft | 203 kts | 330° |
| 2026-05-07 14:56 | 2.79985 | 101.68920 | 2361 ft | 198 kts | 336° |
| 2026-05-07 14:56 | 2.81241 | 101.68389 | 3167 ft | 200 kts | 340° |
| 2026-05-07 14:57 | 2.82634 | 101.67903 | 3426 ft | 224 kts | 341° |
| 2026-05-07 14:57 | 2.84183 | 101.67373 | 3618 ft | 246 kts | 341° |
| 2026-05-07 14:57 | 2.85838 | 101.66791 | 4016 ft | 253 kts | 340° |
| 2026-05-07 14:57 | 2.87469 | 101.66210 | 4623 ft | 255 kts | 340° |
| 2026-05-07 14:58 | 2.89164 | 101.65600 | 5128 ft | 261 kts | 339° |
| 2026-05-07 14:58 | 2.90958 | 101.65115 | 5533 ft | 279 kts | 358° |
| 2026-05-07 14:58 | 2.92851 | 101.65575 | 6230 ft | 282 kts | 27° |
| 2026-05-07 14:58 | 2.94565 | 101.66532 | 6984 ft | 285 kts | 30° |
| 2026-05-07 14:59 | 2.96285 | 101.67548 | 7720 ft | 288 kts | 31° |
| 2026-05-07 14:59 | 2.98008 | 101.68573 | 8523 ft | 288 kts | 31° |
| 2026-05-07 14:59 | 2.99728 | 101.69591 | 9277 ft | 291 kts | 31° |
| 2026-05-07 14:59 | 3.01479 | 101.70622 | 9980 ft | 294 kts | 31° |
| 2026-05-07 15:00 | 3.02646 | 101.71306 | 10361 ft | 300 kts | 31° |
| 2026-05-07 15:00 | 3.05189 | 101.72792 | 10593 ft | 330 kts | 31° |
| 2026-05-07 15:00 | 3.06530 | 101.73575 | 10695 ft | 343 kts | 31° |
| 2026-05-07 15:00 | 3.08633 | 101.74799 | 11028 ft | 356 kts | 31° |
| 2026-05-07 15:01 | 3.11495 | 101.76463 | 11827 ft | 360 kts | 31° |
| 2026-05-07 15:01 | 3.12954 | 101.77311 | 12298 ft | 360 kts | 31° |
| 2026-05-07 15:01 | 3.15813 | 101.78980 | 13190 ft | 362 kts | 33° |
| 2026-05-07 15:01 | 3.17701 | 101.80637 | 13785 ft | 362 kts | 53° |
| 2026-05-07 15:02 | 3.18679 | 101.82019 | 14209 ft | 362 kts | 57° |
| 2026-05-07 15:02 | 3.20060 | 101.84098 | 14796 ft | 365 kts | 57° |
| 2026-05-07 15:02 | 3.21436 | 101.86189 | 15318 ft | 370 kts | 57° |
| 2026-05-07 15:02 | 3.22869 | 101.88346 | 15885 ft | 373 kts | 57° |
| 2026-05-07 15:03 | 3.24312 | 101.90492 | 16447 ft | 375 kts | 57° |
| 2026-05-07 15:03 | 3.25787 | 101.92673 | 16990 ft | 379 kts | 57° |
| 2026-05-07 15:03 | 3.27285 | 101.94868 | 17505 ft | 383 kts | 56° |
| 2026-05-07 15:03 | 3.28875 | 101.97022 | 18013 ft | 387 kts | 54° |
| 2026-05-07 15:04 | 3.30512 | 101.99164 | 18474 ft | 390 kts | 54° |
| 2026-05-07 15:04 | 3.32163 | 102.01338 | 18885 ft | 393 kts | 54° |
| 2026-05-07 15:04 | 3.33807 | 102.03526 | 19329 ft | 395 kts | 54° |
| 2026-05-07 15:04 | 3.35605 | 102.05607 | 19731 ft | 400 kts | 41° |
| 2026-05-07 15:05 | 3.37955 | 102.07143 | 20078 ft | 407 kts | 31° |
| 2026-05-07 15:05 | 3.40447 | 102.08530 | 20506 ft | 409 kts | 31° |
| 2026-05-07 15:05 | 3.42920 | 102.09941 | 20936 ft | 411 kts | 32° |
| 2026-05-07 15:05 | 3.45430 | 102.11343 | 21337 ft | 414 kts | 30° |
| 2026-05-07 15:06 | 3.47995 | 102.12681 | 21720 ft | 418 kts | 29° |
| 2026-05-07 15:06 | 3.50601 | 102.14000 | 22072 ft | 421 kts | 28° |
| 2026-05-07 15:06 | 3.53227 | 102.15321 | 22451 ft | 423 kts | 28° |
| 2026-05-07 15:06 | 3.55826 | 102.16630 | 22865 ft | 424 kts | 28° |
| 2026-05-07 15:07 | 3.58490 | 102.17979 | 23287 ft | 425 kts | 29° |
| 2026-05-07 15:07 | 3.61136 | 102.19324 | 23660 ft | 426 kts | 29° |
| 2026-05-07 15:07 | 3.63747 | 102.20657 | 24009 ft | 427 kts | 29° |
| 2026-05-07 15:07 | 3.66403 | 102.22016 | 24384 ft | 427 kts | 29° |
| 2026-05-07 15:08 | 3.69030 | 102.23361 | 24844 ft | 422 kts | 29° |
| 2026-05-07 15:08 | 3.71660 | 102.24708 | 24846 ft | 424 kts | 29° |
| 2026-05-07 15:08 | 3.74279 | 102.26051 | 24861 ft | 421 kts | 29° |
| 2026-05-07 15:08 | 3.76874 | 102.27380 | 24866 ft | 418 kts | 29° |
| 2026-05-07 15:09 | 3.79472 | 102.28712 | 24880 ft | 420 kts | 29° |
| 2026-05-07 15:09 | 3.82081 | 102.30050 | 24878 ft | 420 kts | 29° |
| 2026-05-07 15:09 | 3.84678 | 102.31382 | 24870 ft | 419 kts | 29° |
| 2026-05-07 15:09 | 3.87273 | 102.32711 | 24877 ft | 419 kts | 29° |
| 2026-05-07 15:10 | 3.89864 | 102.34040 | 24868 ft | 419 kts | 29° |
| 2026-05-07 15:10 | 3.92457 | 102.35370 | 24869 ft | 418 kts | 29° |
| 2026-05-07 15:10 | 3.95043 | 102.36697 | 24866 ft | 416 kts | 29° |
| 2026-05-07 15:10 | 3.97593 | 102.38003 | 24858 ft | 408 kts | 29° |
| 2026-05-07 15:11 | 4.00093 | 102.39284 | 24850 ft | 398 kts | 29° |
| 2026-05-07 15:11 | 4.02518 | 102.40525 | 24854 ft | 383 kts | 29° |
| 2026-05-07 15:11 | 4.04845 | 102.41717 | 24845 ft | 369 kts | 29° |
| 2026-05-07 15:11 | 4.07091 | 102.42867 | 24851 ft | 355 kts | 29° |
| 2026-05-07 15:12 | 4.09221 | 102.43958 | 24848 ft | 342 kts | 29° |
| 2026-05-07 15:12 | 4.11325 | 102.45037 | 24850 ft | 329 kts | 30° |
| 2026-05-07 15:12 | 4.13321 | 102.46061 | 24844 ft | 316 kts | 30° |
| 2026-05-07 15:12 | 4.15241 | 102.47046 | 24853 ft | 303 kts | 30° |
| 2026-05-07 15:13 | 4.17067 | 102.47983 | 24844 ft | 294 kts | 30° |
| 2026-05-07 15:13 | 4.18911 | 102.48931 | 24874 ft | 297 kts | 30° |
| 2026-05-07 15:13 | 4.20760 | 102.49884 | 24892 ft | 308 kts | 30° |
| 2026-05-07 15:13 | 4.22687 | 102.50877 | 24872 ft | 311 kts | 30° |
| 2026-05-07 15:14 | 4.24625 | 102.51873 | 24713 ft | 318 kts | 30° |
| 2026-05-07 15:14 | 4.26621 | 102.52899 | 24421 ft | 324 kts | 30° |
| 2026-05-07 15:14 | 4.28630 | 102.53930 | 24147 ft | 325 kts | 30° |
| 2026-05-07 15:14 | 4.30632 | 102.54957 | 23854 ft | 322 kts | 30° |
| 2026-05-07 15:15 | 4.32617 | 102.55975 | 23585 ft | 319 kts | 30° |
| 2026-05-07 15:15 | 4.34587 | 102.56986 | 23273 ft | 317 kts | 30° |
| 2026-05-07 15:15 | 4.36569 | 102.58003 | 22930 ft | 315 kts | 30° |
| 2026-05-07 15:15 | 4.38493 | 102.58991 | 22488 ft | 317 kts | 30° |
| 2026-05-07 15:16 | 4.40476 | 102.60011 | 21856 ft | 322 kts | 30° |
| 2026-05-07 15:16 | 4.42464 | 102.61032 | 21358 ft | 321 kts | 29° |
| 2026-05-07 15:16 | 4.44447 | 102.62050 | 20852 ft | 319 kts | 29° |
| 2026-05-07 15:16 | 4.46419 | 102.63063 | 20362 ft | 317 kts | 29° |
| 2026-05-07 15:17 | 4.48379 | 102.64071 | 19878 ft | 316 kts | 30° |
| 2026-05-07 15:17 | 4.50326 | 102.65075 | 19399 ft | 314 kts | 30° |
| 2026-05-07 15:17 | 4.52264 | 102.66072 | 18928 ft | 313 kts | 30° |
| 2026-05-07 15:17 | 4.54195 | 102.67064 | 18485 ft | 309 kts | 30° |
| 2026-05-07 15:18 | 4.56084 | 102.68035 | 18030 ft | 302 kts | 30° |
| 2026-05-07 15:18 | 4.57937 | 102.68980 | 17476 ft | 295 kts | 28° |
| 2026-05-07 15:18 | 4.59752 | 102.69898 | 16954 ft | 289 kts | 29° |
| 2026-05-07 15:18 | 4.61530 | 102.70796 | 16434 ft | 284 kts | 28° |
| 2026-05-07 15:19 | 4.63291 | 102.71661 | 15928 ft | 280 kts | 27° |
| 2026-05-07 15:19 | 4.65036 | 102.72504 | 15421 ft | 276 kts | 27° |
| 2026-05-07 15:19 | 4.66750 | 102.73338 | 14931 ft | 272 kts | 27° |
| 2026-05-07 15:19 | 4.68443 | 102.74167 | 14448 ft | 269 kts | 27° |
| 2026-05-07 15:20 | 4.70110 | 102.74987 | 13978 ft | 265 kts | 27° |
| 2026-05-07 15:20 | 4.71761 | 102.75801 | 13480 ft | 263 kts | 27° |
| 2026-05-07 15:20 | 4.73385 | 102.76602 | 12963 ft | 260 kts | 27° |
| 2026-05-07 15:20 | 4.75007 | 102.77397 | 12435 ft | 258 kts | 27° |
| 2026-05-07 15:21 | 4.76612 | 102.78185 | 11921 ft | 256 kts | 27° |
| 2026-05-07 15:21 | 4.78202 | 102.78972 | 11419 ft | 254 kts | 27° |
| 2026-05-07 15:21 | 4.79778 | 102.79754 | 10927 ft | 252 kts | 27° |
| 2026-05-07 15:21 | 4.81344 | 102.80529 | 10442 ft | 250 kts | 26° |
| 2026-05-07 15:22 | 4.82893 | 102.81292 | 9963 ft | 248 kts | 26° |
| 2026-05-07 15:22 | 4.84442 | 102.82053 | 9464 ft | 247 kts | 26° |
| 2026-05-07 15:22 | 4.85980 | 102.82807 | 8945 ft | 246 kts | 26° |
| 2026-05-07 15:22 | 4.87542 | 102.83494 | 8427 ft | 245 kts | 16° |
| 2026-05-07 15:23 | 4.89199 | 102.83903 | 7928 ft | 245 kts | 13° |
| 2026-05-07 15:23 | 4.90854 | 102.84288 | 7417 ft | 244 kts | 13° |
| 2026-05-07 15:23 | 4.92503 | 102.84682 | 6919 ft | 242 kts | 13° |
| 2026-05-07 15:23 | 4.94135 | 102.85081 | 6439 ft | 241 kts | 13° |
| 2026-05-07 15:24 | 4.95763 | 102.85486 | 5934 ft | 240 kts | 13° |
| 2026-05-07 15:24 | 4.97373 | 102.85892 | 5433 ft | 239 kts | 13° |
| 2026-05-07 15:24 | 4.98972 | 102.86299 | 4939 ft | 238 kts | 13° |
| 2026-05-07 15:24 | 5.00576 | 102.86713 | 4432 ft | 237 kts | 16° |
| 2026-05-07 15:25 | 5.02135 | 102.87175 | 4134 ft | 227 kts | 16° |
| 2026-05-07 15:25 | 5.03611 | 102.87556 | 4036 ft | 213 kts | 14° |
| 2026-05-07 15:25 | 5.05025 | 102.87899 | 4027 ft | 206 kts | 14° |
| 2026-05-07 15:25 | 5.06388 | 102.88236 | 4030 ft | 200 kts | 13° |
| 2026-05-07 15:26 | 5.07690 | 102.88559 | 4021 ft | 187 kts | 13° |
| 2026-05-07 15:26 | 5.08952 | 102.88817 | 4016 ft | 185 kts | 11° |
| 2026-05-07 15:26 | 5.10215 | 102.89056 | 4014 ft | 184 kts | 11° |
| 2026-05-07 15:26 | 5.11468 | 102.89293 | 4021 ft | 183 kts | 11° |
| 2026-05-07 15:27 | 5.12721 | 102.89532 | 4016 ft | 183 kts | 11° |
| 2026-05-07 15:27 | 5.13972 | 102.89772 | 4027 ft | 183 kts | 11° |
| 2026-05-07 15:27 | 5.15222 | 102.90012 | 4029 ft | 183 kts | 11° |
| 2026-05-07 15:27 | 5.16472 | 102.90253 | 4041 ft | 181 kts | 11° |
| 2026-05-07 15:28 | 5.17684 | 102.90505 | 4025 ft | 177 kts | 19° |
| 2026-05-07 15:28 | 5.18681 | 102.91168 | 4044 ft | 172 kts | 44° |
| 2026-05-07 15:28 | 5.19564 | 102.92003 | 4030 ft | 175 kts | 44° |
| 2026-05-07 15:28 | 5.20446 | 102.92854 | 4030 ft | 177 kts | 45° |
| 2026-05-07 15:29 | 5.21339 | 102.93729 | 3754 ft | 188 kts | 45° |
| 2026-05-07 15:29 | 5.22278 | 102.94651 | 3452 ft | 186 kts | 45° |
| 2026-05-07 15:29 | 5.23175 | 102.95529 | 3264 ft | 173 kts | 45° |
| 2026-05-07 15:29 | 5.24009 | 102.96347 | 3112 ft | 165 kts | 45° |
| 2026-05-07 15:30 | 5.24813 | 102.97136 | 3043 ft | 162 kts | 46° |
| 2026-05-07 15:30 | 5.25613 | 102.97920 | 2902 ft | 161 kts | 46° |
| 2026-05-07 15:30 | 5.26409 | 102.98702 | 2771 ft | 159 kts | 46° |
| 2026-05-07 15:30 | 5.27187 | 102.99464 | 2658 ft | 159 kts | 46° |
| 2026-05-07 15:31 | 5.27978 | 103.00241 | 2533 ft | 160 kts | 46° |
| 2026-05-07 15:31 | 5.28780 | 103.01027 | 2328 ft | 160 kts | 45° |
| 2026-05-07 15:31 | 5.29571 | 103.01802 | 2114 ft | 158 kts | 46° |
| 2026-05-07 15:31 | 5.30354 | 103.02570 | 1911 ft | 157 kts | 45° |
| 2026-05-07 15:32 | 5.31126 | 103.03330 | 1708 ft | 156 kts | 46° |
| 2026-05-07 15:32 | 5.31908 | 103.04097 | 1491 ft | 157 kts | 46° |
| 2026-05-07 15:32 | 5.32689 | 103.04863 | 1292 ft | 156 kts | 46° |
| 2026-05-07 15:32 | 5.33460 | 103.05619 | 1080 ft | 156 kts | 46° |
| 2026-05-07 15:33 | 5.34238 | 103.06382 | 884 ft | 156 kts | 45° |
| 2026-05-07 15:33 | 5.35019 | 103.07129 | 693 ft | 154 kts | 43° |
| 2026-05-07 15:33 | 5.35794 | 103.07879 | 474 ft | 156 kts | 44° |
| 2026-05-07 15:33 | 5.36565 | 103.08633 | 266 ft | 153 kts | 41° |
| 2026-05-07 15:34 | 5.37316 | 103.09385 | 90 ft | 153 kts | 38° |
| 2026-05-07 15:34 | 5.38065 | 103.10115 | 61 ft | 147 kts | 43° |
| 2026-05-07 15:34 | 5.38676 | 103.10734 | 28 ft | 81 kts | 43° |
| 2026-05-07 15:34 | 5.39003 | 103.11055 | 28 ft | 57 kts | 44° |
| 2026-05-07 15:35 | 5.39191 | 103.11177 | 28 ft | 16 kts | 19° |
| 2026-05-07 15:35 | 5.39201 | 103.11250 | 28 ft | 7 kts | 174° |
| 2026-05-07 15:35 | 5.39158 | 103.11214 | 28 ft | 11 kts | 227° |
| 2026-05-07 15:35 | 5.39082 | 103.11135 | 28 ft | 18 kts | 227° |
| 2026-05-07 15:36 | 5.38988 | 103.11038 | 28 ft | 20 kts | 223° |
| 2026-05-07 15:36 | 5.38884 | 103.10937 | 28 ft | 21 kts | 225° |
| 2026-05-07 15:36 | 5.38769 | 103.10830 | 28 ft | 24 kts | 222° |
| 2026-05-07 15:36 | 5.38648 | 103.10707 | 28 ft | 26 kts | 225° |
| 2026-05-07 15:37 | 5.38513 | 103.10573 | 28 ft | 29 kts | 224° |
| 2026-05-07 15:37 | 5.38363 | 103.10435 | 28 ft | 28 kts | 233° |
| 2026-05-07 15:37 | 5.38228 | 103.10324 | 28 ft | 19 kts | 181° |
| 2026-05-07 15:37 | 5.38144 | 103.10382 | 27 ft | 6 kts | 135° |
| 2026-05-07 15:38 | 5.38119 | 103.10406 | 27 ft | 3 kts | 136° |
| 2026-05-07 15:38 | 5.38090 | 103.10423 | 26 ft | 6 kts | 158° |
| 2026-05-07 15:38 | 5.38052 | 103.10444 | 24 ft | 6 kts | 141° |
| 2026-05-07 15:38 | 5.38031 | 103.10465 | 24 ft | 3 kts | 134° |
| 2026-05-07 15:39 | 5.38021 | 103.10475 | 24 ft | 0 kts | 134° |
| 2026-05-07 15:39 | 5.38021 | 103.10476 | 24 ft | 0 kts | 134° |